createdAt,value
2019-02-24T00:00:50.019Z,25.10
2019-02-24T00:03:23.845Z,24.30
2019-02-24T00:05:55.702Z,24.40
2019-02-24T00:08:28.276Z,24.80
2019-02-24T00:11:00.067Z,24.50
2019-02-24T00:13:32.208Z,24.70
2019-02-24T00:16:04.255Z,24.80
2019-02-24T00:18:36.637Z,24.70
2019-02-24T00:21:08.762Z,24.90
2019-02-24T00:23:40.669Z,24.30
2019-02-24T00:26:12.448Z,24.20
2019-02-24T00:28:44.462Z,24.00
2019-02-24T00:31:16.367Z,24.20
2019-02-24T00:33:48.408Z,24.50
2019-02-24T00:36:20.748Z,24.90
2019-02-24T00:38:52.750Z,25.00
2019-02-24T00:41:24.528Z,24.80
2019-02-24T00:43:56.575Z,24.70
2019-02-24T00:46:28.409Z,24.40
2019-02-24T00:49:00.395Z,24.50
2019-02-24T00:51:32.460Z,24.60
2019-02-24T00:54:04.641Z,24.60
2019-02-24T00:56:36.422Z,24.80
2019-02-24T00:59:08.326Z,24.80
2019-02-24T01:01:41.077Z,25.00
2019-02-24T01:04:13.218Z,25.20
2019-02-24T01:06:45.090Z,24.90
2019-02-24T01:09:17.340Z,24.30
2019-02-24T01:11:49.104Z,24.50
2019-02-24T01:14:22.135Z,24.80
2019-02-24T01:16:54.098Z,25.00
2019-02-24T01:19:25.981Z,25.20
2019-02-24T01:21:57.916Z,24.70
2019-02-24T01:24:30.150Z,24.50
2019-02-24T01:27:01.919Z,24.00
2019-02-24T01:29:33.964Z,24.20
2019-02-24T01:32:05.778Z,24.30
2019-02-24T01:34:37.636Z,24.40
2019-02-24T01:37:09.750Z,24.40
2019-02-24T01:39:41.574Z,24.70
2019-02-24T01:42:13.375Z,24.90
2019-02-24T01:44:45.347Z,24.70
2019-02-24T01:47:17.142Z,24.70
2019-02-24T01:49:49.182Z,24.40
2019-02-24T01:52:20.960Z,24.50
2019-02-24T01:54:52.843Z,24.40
2019-02-24T01:57:24.637Z,24.20
2019-02-24T01:59:56.708Z,24.50
2019-02-24T02:02:28.548Z,24.20
2019-02-24T02:05:00.552Z,24.30
2019-02-24T02:07:32.412Z,24.30
2019-02-24T02:10:04.466Z,24.00
2019-02-24T02:12:36.349Z,24.30
2019-02-24T02:15:08.587Z,24.40
2019-02-24T02:17:40.516Z,24.10
2019-02-24T02:20:12.834Z,24.10
2019-02-24T02:22:45.349Z,23.80
2019-02-24T02:25:17.247Z,23.80
2019-02-24T02:27:49.004Z,24.40
2019-02-24T02:30:21.100Z,24.80
2019-02-24T02:32:52.871Z,25.00
2019-02-24T02:35:24.890Z,24.60
2019-02-24T02:37:57.037Z,24.50
2019-02-24T02:40:29.794Z,24.30
2019-02-24T02:43:01.663Z,24.40
2019-02-24T02:45:33.798Z,24.20
2019-02-24T02:48:05.576Z,24.40
2019-02-24T02:50:37.585Z,23.80
2019-02-24T02:53:09.640Z,24.00
2019-02-24T02:55:41.526Z,23.70
2019-02-24T02:58:13.288Z,23.80
2019-02-24T03:00:45.194Z,24.00
2019-02-24T03:03:17.003Z,23.60
2019-02-24T03:05:58.611Z,24.10
2019-02-24T03:08:50.207Z,23.60
2019-02-24T03:11:22.314Z,23.00
2019-02-24T03:13:54.117Z,23.50
2019-02-24T03:16:28.772Z,23.70
2019-02-24T03:19:00.541Z,23.90
2019-02-24T03:21:32.462Z,24.10
2019-02-24T03:24:04.274Z,24.30
2019-02-24T03:26:36.129Z,23.30
2019-02-24T03:29:07.937Z,23.40
2019-02-24T03:31:39.795Z,23.30
2019-02-24T03:34:11.549Z,23.20
2019-02-24T03:36:43.409Z,23.30
2019-02-24T03:39:15.524Z,23.50
2019-02-24T03:41:47.405Z,23.50
2019-02-24T03:44:19.160Z,23.60
2019-02-24T03:46:51.027Z,23.80
2019-02-24T03:49:22.807Z,23.50
2019-02-24T03:51:54.859Z,23.50
2019-02-24T03:54:26.973Z,23.50
2019-02-24T03:56:58.813Z,23.70
2019-02-24T03:59:30.622Z,23.80
2019-02-24T04:02:02.403Z,23.70
2019-02-24T04:04:35.433Z,23.90
2019-02-24T04:07:07.276Z,23.10
2019-02-24T04:09:39.523Z,23.20
2019-02-24T04:12:11.588Z,23.60
2019-02-24T04:14:43.438Z,23.60
2019-02-24T04:17:15.260Z,23.40
2019-02-24T04:19:47.047Z,23.60
2019-02-24T04:22:19.141Z,23.80
2019-02-24T04:24:51.242Z,23.40
2019-02-24T04:27:23.397Z,23.80
2019-02-24T04:29:55.343Z,23.50
2019-02-24T04:32:27.508Z,23.80
2019-02-24T04:34:59.263Z,24.10
2019-02-24T04:37:31.234Z,24.30
2019-02-24T04:40:03.335Z,24.20
2019-02-24T04:42:35.469Z,24.20
2019-02-24T04:45:07.275Z,24.20
2019-02-24T04:47:39.290Z,24.20
2019-02-24T04:50:11.070Z,23.90
2019-02-24T04:52:42.943Z,23.90
2019-02-24T04:55:15.081Z,23.60
2019-02-24T04:57:47.143Z,23.80
2019-02-24T05:00:18.941Z,23.80
2019-02-24T05:02:50.806Z,23.80
2019-02-24T05:05:22.631Z,23.80
2019-02-24T05:07:54.704Z,23.90
2019-02-24T05:10:26.720Z,24.20
2019-02-24T05:12:58.837Z,24.10
2019-02-24T05:15:30.607Z,24.40
2019-02-24T05:18:02.482Z,24.20
2019-02-24T05:20:34.255Z,24.40
2019-02-24T05:23:06.112Z,24.40
2019-02-24T05:25:38.133Z,24.00
2019-02-24T05:28:10.025Z,24.10
2019-02-24T05:30:42.055Z,24.30
2019-02-24T05:33:13.923Z,24.10
2019-02-24T05:35:45.721Z,24.00
2019-02-24T05:38:17.869Z,24.10
2019-02-24T05:40:49.993Z,24.50
2019-02-24T05:43:22.078Z,24.40
2019-02-24T05:45:53.864Z,24.30
2019-02-24T05:48:25.906Z,24.40
2019-02-24T05:50:57.743Z,24.30
2019-02-24T05:53:29.504Z,24.20
2019-02-24T05:56:01.560Z,24.10
2019-02-24T05:58:33.664Z,24.20
2019-02-24T06:01:05.418Z,24.20
2019-02-24T06:03:37.374Z,24.50
2019-02-24T06:06:09.163Z,24.70
2019-02-24T06:08:41.030Z,24.70
2019-02-24T06:11:13.131Z,25.00
2019-02-24T06:13:45.069Z,25.30
2019-02-24T06:16:16.844Z,25.20
2019-02-24T06:18:48.815Z,25.20
2019-02-24T06:21:20.676Z,25.30
2019-02-24T06:23:52.685Z,25.60
2019-02-24T06:26:24.769Z,25.50
2019-02-24T06:28:56.658Z,25.60
2019-02-24T06:31:28.471Z,25.70
2019-02-24T06:34:00.845Z,25.50
2019-02-24T06:36:32.618Z,25.50
2019-02-24T06:39:05.404Z,25.50
2019-02-24T06:41:37.423Z,25.40
2019-02-24T06:44:09.515Z,25.50
2019-02-24T06:46:41.329Z,25.50
2019-02-24T06:49:14.473Z,25.20
2019-02-24T06:51:46.321Z,25.40
2019-02-24T06:54:19.521Z,25.60
2019-02-24T06:56:51.524Z,25.40
2019-02-24T06:59:23.567Z,25.50
2019-02-24T07:01:55.373Z,25.30
2019-02-24T07:04:27.143Z,25.50
2019-02-24T07:06:58.924Z,25.40
2019-02-24T07:09:30.994Z,25.50
2019-02-24T07:12:03.307Z,25.40
2019-02-24T07:14:36.367Z,25.10
2019-02-24T07:17:08.202Z,25.20
2019-02-24T07:19:40.096Z,25.40
2019-02-24T07:22:11.895Z,25.60
2019-02-24T07:24:45.140Z,25.70
2019-02-24T07:27:16.892Z,25.90
2019-02-24T07:29:48.784Z,25.90
2019-02-24T07:32:20.573Z,25.70
2019-02-24T07:34:52.569Z,25.50
2019-02-24T07:37:24.418Z,25.20
2019-02-24T07:39:56.285Z,25.10
2019-02-24T07:42:28.303Z,25.00
2019-02-24T07:45:00.530Z,25.20
2019-02-24T07:47:32.306Z,25.50
2019-02-24T07:50:04.284Z,25.70
2019-02-24T07:52:36.089Z,25.70
2019-02-24T07:55:08.194Z,25.40
2019-02-24T07:57:40.728Z,25.60
2019-02-24T08:00:12.933Z,25.60
2019-02-24T08:02:44.755Z,25.70
2019-02-24T08:05:16.626Z,25.40
2019-02-24T08:07:48.416Z,25.30
2019-02-24T08:10:20.518Z,25.50
2019-02-24T08:12:52.448Z,25.20
2019-02-24T08:15:24.636Z,25.40
2019-02-24T08:17:56.514Z,25.80
2019-02-24T08:20:28.432Z,25.80
2019-02-24T08:23:00.254Z,25.90
2019-02-24T08:25:33.416Z,25.80
2019-02-24T08:28:05.540Z,25.90
2019-02-24T08:30:41.708Z,25.90
2019-02-24T08:33:11.040Z,25.80
2019-02-24T08:35:43.201Z,26.00
2019-02-24T08:38:15.039Z,26.30
2019-02-24T08:40:47.130Z,26.30
2019-02-24T08:43:20.472Z,26.30
2019-02-24T08:45:52.601Z,26.10
2019-02-24T08:48:24.523Z,26.20
2019-02-24T08:50:56.530Z,26.10
2019-02-24T08:53:28.415Z,26.20
2019-02-24T08:56:00.660Z,26.60
2019-02-24T08:58:32.842Z,26.40
2019-02-24T09:01:05.515Z,26.60
2019-02-24T09:03:37.426Z,26.90
2019-02-24T09:06:09.521Z,26.70
2019-02-24T09:08:41.364Z,26.50
2019-02-24T09:11:13.551Z,26.70
2019-02-24T09:13:45.842Z,26.80
2019-02-24T09:16:18.191Z,26.90
2019-02-24T09:18:50.815Z,27.20
2019-02-24T09:21:23.979Z,27.00
2019-02-24T09:23:56.353Z,27.00
2019-02-24T09:26:29.199Z,27.20
2019-02-24T09:29:02.303Z,27.10
2019-02-24T09:31:35.329Z,27.30
2019-02-24T09:34:07.737Z,27.30
2019-02-24T09:36:40.916Z,27.60
2019-02-24T09:39:13.620Z,27.60
2019-02-24T09:41:46.353Z,27.60
2019-02-24T09:44:19.101Z,27.40
2019-02-24T09:46:51.902Z,27.30
2019-02-24T09:49:24.272Z,27.30
2019-02-24T09:51:56.665Z,27.50
2019-02-24T09:54:28.588Z,27.20
2019-02-24T09:57:00.777Z,27.30
2019-02-24T09:59:32.831Z,27.40
2019-02-24T10:02:05.601Z,27.20
2019-02-24T10:04:37.715Z,27.20
2019-02-24T10:07:09.781Z,27.20
2019-02-24T10:09:41.957Z,27.20
2019-02-24T10:12:14.413Z,27.30
2019-02-24T10:14:46.339Z,27.30
2019-02-24T10:17:18.443Z,27.20
2019-02-24T10:19:50.340Z,27.30
2019-02-24T10:22:23.069Z,26.90
2019-02-24T10:24:55.524Z,26.40
2019-02-24T10:27:28.160Z,26.10
2019-02-24T10:30:00.842Z,25.90
2019-02-24T10:32:33.215Z,26.20
2019-02-24T10:35:05.374Z,26.30
2019-02-24T10:37:37.637Z,26.40
2019-02-24T10:40:12.519Z,26.50
2019-02-24T10:42:45.748Z,26.70
2019-02-24T10:45:17.960Z,26.90
2019-02-24T10:47:50.337Z,26.80
2019-02-24T10:50:22.266Z,27.00
2019-02-24T10:52:54.646Z,27.00
2019-02-24T10:55:26.723Z,27.10
2019-02-24T10:57:59.060Z,27.30
2019-02-24T11:00:31.287Z,27.70
2019-02-24T11:03:03.513Z,27.60
2019-02-24T11:05:35.823Z,27.80
2019-02-24T11:08:08.261Z,27.70
2019-02-24T11:10:40.064Z,27.80
2019-02-24T11:13:12.481Z,28.00
2019-02-24T11:15:44.339Z,27.90
2019-02-24T11:18:16.256Z,27.90
2019-02-24T11:20:48.187Z,28.00
2019-02-24T11:23:20.250Z,27.80
2019-02-24T11:25:52.066Z,27.80
2019-02-24T11:28:23.954Z,27.90
2019-02-24T11:30:56.047Z,27.90
2019-02-24T11:33:28.107Z,28.00
2019-02-24T11:35:59.974Z,27.50
2019-02-24T11:38:32.135Z,27.50
2019-02-24T11:41:04.001Z,27.90
2019-02-24T11:43:36.162Z,28.00
2019-02-24T11:46:08.152Z,27.80
2019-02-24T11:48:40.315Z,27.90
2019-02-24T11:51:12.285Z,27.80
2019-02-24T11:53:45.335Z,28.10
2019-02-24T11:56:17.209Z,28.00
2019-02-24T11:58:49.400Z,28.00
2019-02-24T12:01:21.249Z,28.10
2019-02-24T12:03:53.391Z,28.10
2019-02-24T12:06:25.270Z,28.10
2019-02-24T12:09:05.049Z,28.30
2019-02-24T12:11:30.750Z,28.30
2019-02-24T12:14:02.912Z,28.00
2019-02-24T12:16:35.302Z,28.30
2019-02-24T12:19:07.751Z,28.40
2019-02-24T12:21:39.567Z,28.60
2019-02-24T12:24:11.608Z,28.60
2019-02-24T12:26:43.540Z,28.20
2019-02-24T12:29:15.462Z,28.20
2019-02-24T12:31:56.209Z,28.10
2019-02-24T12:34:21.585Z,28.20
2019-02-24T12:36:53.385Z,28.00
2019-02-24T12:39:25.680Z,28.20
2019-02-24T12:41:57.649Z,28.50
2019-02-24T12:44:29.781Z,28.60
2019-02-24T12:47:01.966Z,28.60
2019-02-24T12:49:34.178Z,28.40
2019-02-24T12:52:06.806Z,28.40
2019-02-24T12:54:39.053Z,28.60
2019-02-24T12:57:10.863Z,28.80
2019-02-24T12:59:43.370Z,29.20
2019-02-24T13:02:16.091Z,29.30
2019-02-24T13:04:48.528Z,29.10
2019-02-24T13:07:20.489Z,29.00
2019-02-24T13:09:52.500Z,29.20
2019-02-24T13:12:24.340Z,29.20
2019-02-24T13:14:56.403Z,29.40
2019-02-24T13:17:28.172Z,29.50
2019-02-24T13:20:00.346Z,29.60
2019-02-24T13:22:32.417Z,29.60
2019-02-24T13:25:04.640Z,29.80
2019-02-24T13:27:36.532Z,29.60
2019-02-24T13:30:09.241Z,29.70
2019-02-24T13:32:41.577Z,29.70
2019-02-24T13:35:14.645Z,29.50
2019-02-24T13:37:47.731Z,29.70
2019-02-24T13:40:20.633Z,29.50
2019-02-24T13:42:52.873Z,29.80
2019-02-24T13:45:26.865Z,30.00
2019-02-24T13:47:58.871Z,30.50
2019-02-24T13:50:30.964Z,30.20
2019-02-24T13:53:03.247Z,30.80
2019-02-24T13:55:35.685Z,31.10
2019-02-24T13:58:07.523Z,31.20
2019-02-24T14:00:39.804Z,31.40
2019-02-24T14:03:12.039Z,31.70
2019-02-24T14:05:44.019Z,31.80
2019-02-24T14:08:15.947Z,31.90
2019-02-24T14:10:48.181Z,32.30
2019-02-24T14:13:20.122Z,32.50
2019-02-24T14:15:52.585Z,32.80
2019-02-24T14:18:24.909Z,33.00
2019-02-24T14:20:57.217Z,33.50
2019-02-24T14:23:29.265Z,33.60
2019-02-24T14:26:01.426Z,33.70
2019-02-24T14:28:33.337Z,33.80
2019-02-24T14:31:05.563Z,34.00
2019-02-24T14:33:37.880Z,33.80
2019-02-24T14:36:11.323Z,33.40
2019-02-24T14:38:43.400Z,33.30
2019-02-24T14:41:15.385Z,33.30
2019-02-24T14:43:47.339Z,33.10
2019-02-24T14:46:19.345Z,32.90
2019-02-24T14:48:51.137Z,32.50
2019-02-24T14:51:23.266Z,32.00
2019-02-24T14:53:55.055Z,31.60
2019-02-24T14:56:27.327Z,31.10
2019-02-24T14:58:59.461Z,31.00
2019-02-24T15:01:31.882Z,31.00
2019-02-24T15:04:03.900Z,31.00
2019-02-24T15:06:36.539Z,31.10
2019-02-24T15:09:09.405Z,31.10
2019-02-24T15:11:42.278Z,31.00
2019-02-24T15:14:14.120Z,30.80
2019-02-24T15:16:46.327Z,31.00
2019-02-24T15:19:18.646Z,31.00
2019-02-24T15:21:50.843Z,31.20
2019-02-24T15:24:22.670Z,31.20
2019-02-24T15:26:54.779Z,31.20
2019-02-24T15:29:26.609Z,31.20
2019-02-24T15:31:58.604Z,31.00
2019-02-24T15:34:30.971Z,31.20
2019-02-24T15:37:03.154Z,31.00
2019-02-24T15:39:35.114Z,31.00
2019-02-24T15:42:07.490Z,30.90
2019-02-24T15:44:39.433Z,30.70
2019-02-24T15:47:11.713Z,30.30
2019-02-24T15:49:43.786Z,30.00
2019-02-24T15:52:16.439Z,29.90
2019-02-24T15:54:48.322Z,30.00
2019-02-24T15:57:20.488Z,29.80
2019-02-24T15:59:52.460Z,29.50
2019-02-24T16:02:24.772Z,29.10
2019-02-24T16:04:57.055Z,29.10
2019-02-24T16:07:29.275Z,29.30
2019-02-24T16:10:01.413Z,29.30
2019-02-24T16:12:33.792Z,29.20
2019-02-24T16:15:06.621Z,28.90
2019-02-24T16:17:39.078Z,28.90
2019-02-24T16:20:17.026Z,29.00
2019-02-24T16:22:49.995Z,28.80
2019-02-24T16:25:22.199Z,28.60
2019-02-24T16:27:54.620Z,28.60
2019-02-24T16:30:26.773Z,28.60
2019-02-24T16:33:00.046Z,28.50
2019-02-24T16:35:32.041Z,28.30
2019-02-24T16:38:04.084Z,28.30
2019-02-24T16:40:36.299Z,28.50
2019-02-24T16:43:08.877Z,28.50
2019-02-24T16:45:41.787Z,28.60
2019-02-24T16:48:13.982Z,28.80
2019-02-24T16:50:45.942Z,28.80
2019-02-24T16:53:18.157Z,28.70
2019-02-24T16:55:50.248Z,28.70
2019-02-24T16:58:23.846Z,28.60
2019-02-24T17:00:56.073Z,28.50
2019-02-24T17:03:28.381Z,28.50
2019-02-24T17:06:00.350Z,28.50
2019-02-24T17:08:32.735Z,28.50
2019-02-24T17:11:07.454Z,28.40
2019-02-24T17:13:38.591Z,28.40
2019-02-24T17:16:10.778Z,28.10
2019-02-24T17:18:43.075Z,28.10
2019-02-24T17:21:15.449Z,28.20
2019-02-24T17:23:50.138Z,28.10
2019-02-24T17:26:21.446Z,28.10
2019-02-24T17:28:54.160Z,28.00
2019-02-24T17:31:28.628Z,28.10
2019-02-24T17:34:01.498Z,28.10
2019-02-24T17:36:35.167Z,28.20
2019-02-24T17:39:10.010Z,28.30
2019-02-24T17:41:44.017Z,28.30
2019-02-24T17:44:16.568Z,28.40
2019-02-24T17:46:50.462Z,28.30
2019-02-24T17:49:22.662Z,28.40
2019-02-24T17:51:54.673Z,28.40
2019-02-24T17:54:26.965Z,28.30
2019-02-24T17:56:59.763Z,28.30
2019-02-24T17:59:40.131Z,28.20
2019-02-24T18:02:07.920Z,28.30
2019-02-24T18:04:40.786Z,28.30
2019-02-24T18:07:14.315Z,28.40
2019-02-24T18:09:47.559Z,28.30
2019-02-24T18:12:21.159Z,28.30
2019-02-24T18:14:54.581Z,28.30
2019-02-24T18:17:28.571Z,28.40
2019-02-24T18:20:03.927Z,28.40
2019-02-24T18:22:39.188Z,28.40
2019-02-24T18:25:14.406Z,28.40
2019-02-24T18:27:48.348Z,28.40
2019-02-24T18:30:26.767Z,28.40
2019-02-24T18:33:00.390Z,28.40
2019-02-24T18:35:35.011Z,28.30
2019-02-24T18:38:09.221Z,28.40
2019-02-24T18:40:43.891Z,28.30
2019-02-24T18:43:18.083Z,28.20
2019-02-24T18:45:51.792Z,28.10
2019-02-24T18:48:25.935Z,28.10
2019-02-24T18:51:00.694Z,28.20
2019-02-24T18:53:35.400Z,28.20
2019-02-24T18:56:09.906Z,28.20
2019-02-24T18:58:44.673Z,27.90
2019-02-24T19:01:19.827Z,27.90
2019-02-24T19:03:57.802Z,28.00
2019-02-24T19:06:38.941Z,27.70
2019-02-24T19:09:09.963Z,27.70
2019-02-24T19:11:44.949Z,27.80
2019-02-24T19:14:19.963Z,27.90
2019-02-24T19:16:57.135Z,27.60
2019-02-24T19:19:31.580Z,27.70
2019-02-24T19:22:07.938Z,27.60
2019-02-24T19:24:43.037Z,27.70
2019-02-24T19:27:17.610Z,27.70
2019-02-24T19:29:52.040Z,27.80
2019-02-24T19:32:27.174Z,27.80
2019-02-24T19:35:03.066Z,27.90
2019-02-24T19:37:37.382Z,27.80
2019-02-24T19:40:13.821Z,27.80
2019-02-24T19:42:50.851Z,27.80
2019-02-24T19:45:25.177Z,27.60
2019-02-24T19:47:59.306Z,27.60
2019-02-24T19:50:33.947Z,27.60
2019-02-24T19:53:09.386Z,27.80
2019-02-24T19:55:45.637Z,27.80
2019-02-24T19:58:20.364Z,27.90
2019-02-24T20:00:55.911Z,27.90
2019-02-24T20:03:30.922Z,27.60
2019-02-24T20:06:05.369Z,27.20
2019-02-24T20:08:40.357Z,27.10
2019-02-24T20:11:14.591Z,27.10
2019-02-24T20:13:49.335Z,27.30
2019-02-24T20:16:24.673Z,27.40
2019-02-24T20:18:59.162Z,27.30
2019-02-24T20:21:33.639Z,27.30
2019-02-24T20:24:08.602Z,27.20
2019-02-24T20:26:43.025Z,27.30
2019-02-24T20:29:18.395Z,27.40
2019-02-24T20:31:52.902Z,27.50
2019-02-24T20:34:28.245Z,27.60
2019-02-24T20:37:03.328Z,27.60
2019-02-24T20:39:38.308Z,27.60
2019-02-24T20:42:12.555Z,27.50
2019-02-24T20:44:47.103Z,27.40
2019-02-24T20:47:22.687Z,27.40
2019-02-24T20:49:57.669Z,27.40
2019-02-24T20:52:34.058Z,27.30
2019-02-24T20:55:09.564Z,27.00
2019-02-24T20:57:44.152Z,27.20
2019-02-24T21:00:35.317Z,27.10
2019-02-24T21:03:09.438Z,27.00
2019-02-24T21:05:44.963Z,27.10
2019-02-24T21:08:19.326Z,27.00
2019-02-24T21:10:54.222Z,27.10
2019-02-24T21:13:28.617Z,27.00
2019-02-24T21:16:03.656Z,27.20
2019-02-24T21:18:37.584Z,27.30
2019-02-24T21:21:12.221Z,27.40
2019-02-24T21:23:46.651Z,27.40
2019-02-24T21:26:21.191Z,27.00
2019-02-24T21:28:56.783Z,27.00
2019-02-24T21:31:31.841Z,27.20
2019-02-24T21:34:06.871Z,27.30
2019-02-24T21:36:42.186Z,27.20
2019-02-24T21:39:16.486Z,27.30
2019-02-24T21:41:51.332Z,27.30
2019-02-24T21:44:25.795Z,27.30
2019-02-24T21:47:00.795Z,27.50
2019-02-24T21:49:34.377Z,27.60
2019-02-24T21:52:09.306Z,27.70
2019-02-24T21:54:42.668Z,27.80
2019-02-24T21:57:16.217Z,27.80
2019-02-24T21:59:49.299Z,27.60
2019-02-24T22:02:23.391Z,27.60
2019-02-24T22:04:56.182Z,27.50
2019-02-24T22:07:28.769Z,27.60
2019-02-24T22:10:01.265Z,27.60
2019-02-24T22:12:34.901Z,27.50
2019-02-24T22:15:09.782Z,27.60
2019-02-24T22:17:42.386Z,27.60
2019-02-24T22:20:16.760Z,27.60
2019-02-24T22:22:49.193Z,27.50
2019-02-24T22:25:21.276Z,27.40
2019-02-24T22:27:54.550Z,27.10
2019-02-24T22:30:26.759Z,27.20
2019-02-24T22:32:58.664Z,27.30
2019-02-24T22:35:30.527Z,27.30
2019-02-24T22:38:02.405Z,27.40
2019-02-24T22:40:34.260Z,27.60
2019-02-24T22:43:06.408Z,27.50
2019-02-24T22:45:38.274Z,27.50
2019-02-24T22:48:10.333Z,27.30
2019-02-24T22:50:42.124Z,27.30
2019-02-24T22:53:14.259Z,27.20
2019-02-24T22:55:46.075Z,27.10
2019-02-24T22:58:17.959Z,27.30
2019-02-24T23:01:24.457Z,27.30
2019-02-24T23:04:06.381Z,27.40
2019-02-24T23:06:38.260Z,27.50
2019-02-24T23:09:19.613Z,27.50
2019-02-24T23:11:51.458Z,27.60
2019-02-24T23:14:25.041Z,27.50
2019-02-24T23:16:57.181Z,27.40
2019-02-24T23:19:29.294Z,27.50
2019-02-24T23:22:01.078Z,27.50
2019-02-24T23:24:33.044Z,27.30
2019-02-24T23:27:04.869Z,27.30
2019-02-24T23:29:36.886Z,27.30
2019-02-24T23:32:10.203Z,27.40
2019-02-24T23:34:42.423Z,27.50
2019-02-24T23:37:14.190Z,27.20
2019-02-24T23:39:46.236Z,27.10
2019-02-24T23:42:18.090Z,27.10
2019-02-24T23:44:50.014Z,27.20
2019-02-24T23:47:22.187Z,27.20
2019-02-24T23:49:54.308Z,27.30
2019-02-24T23:52:26.082Z,27.30
2019-02-24T23:54:58.020Z,27.20
2019-02-24T23:57:29.855Z,27.10
